sensor_id;sensor_type;location;lat;lon;timestamp;temperature;humidity
73955;DHT22;62306;52.516;13.290;2023-04-03T00:00:40;1.80;92.90
73955;DHT22;62306;52.516;13.290;2023-04-03T00:03:07;1.80;92.70
73955;DHT22;62306;52.516;13.290;2023-04-03T00:05:35;1.80;92.50
73955;DHT22;62306;52.516;13.290;2023-04-03T00:08:02;1.80;92.80
73955;DHT22;62306;52.516;13.290;2023-04-03T00:10:33;1.80;92.80
73955;DHT22;62306;52.516;13.290;2023-04-03T00:13:00;1.80;92.90
73955;DHT22;62306;52.516;13.290;2023-04-03T00:15:27;1.70;93.00
73955;DHT22;62306;52.516;13.290;2023-04-03T00:17:54;1.70;93.10
73955;DHT22;62306;52.516;13.290;2023-04-03T00:20:22;1.70;93.00
73955;DHT22;62306;52.516;13.290;2023-04-03T00:22:50;1.70;93.00
73955;DHT22;62306;52.516;13.290;2023-04-03T00:25:17;1.70;92.90
73955;DHT22;62306;52.516;13.290;2023-04-03T00:27:44;1.70;93.00
73955;DHT22;62306;52.516;13.290;2023-04-03T00:30:14;1.70;93.20
73955;DHT22;62306;52.516;13.290;2023-04-03T00:32:41;1.70;93.00
73955;DHT22;62306;52.516;13.290;2023-04-03T00:35:09;1.70;93.00
73955;DHT22;62306;52.516;13.290;2023-04-03T00:37:36;1.60;93.20
73955;DHT22;62306;52.516;13.290;2023-04-03T00:40:06;1.60;93.10
73955;DHT22;62306;52.516;13.290;2023-04-03T00:42:34;1.60;93.30
73955;DHT22;62306;52.516;13.290;2023-04-03T00:45:28;1.60;93.30
73955;DHT22;62306;52.516;13.290;2023-04-03T00:47:56;1.50;93.40
73955;DHT22;62306;52.516;13.290;2023-04-03T00:50:25;1.50;93.50
73955;DHT22;62306;52.516;13.290;2023-04-03T00:52:52;1.50;93.40
73955;DHT22;62306;52.516;13.290;2023-04-03T00:55:21;1.50;93.40
73955;DHT22;62306;52.516;13.290;2023-04-03T00:57:49;1.50;93.60
73955;DHT22;62306;52.516;13.290;2023-04-03T01:00:19;1.40;93.60
73955;DHT22;62306;52.516;13.290;2023-04-03T01:02:47;1.40;93.50
73955;DHT22;62306;52.516;13.290;2023-04-03T01:05:16;1.40;93.60
73955;DHT22;62306;52.516;13.290;2023-04-03T01:07:44;1.40;93.70
73955;DHT22;62306;52.516;13.290;2023-04-03T01:10:14;1.40;93.70
73955;DHT22;62306;52.516;13.290;2023-04-03T01:12:44;1.40;93.60
73955;DHT22;62306;52.516;13.290;2023-04-03T01:15:14;1.40;93.70
73955;DHT22;62306;52.516;13.290;2023-04-03T01:17:42;1.30;93.80
73955;DHT22;62306;52.516;13.290;2023-04-03T01:20:46;1.30;93.80
73955;DHT22;62306;52.516;13.290;2023-04-03T01:23:36;1.30;93.90
73955;DHT22;62306;52.516;13.290;2023-04-03T01:26:06;1.20;94.00
73955;DHT22;62306;52.516;13.290;2023-04-03T01:28:35;1.30;93.90
73955;DHT22;62306;52.516;13.290;2023-04-03T01:31:08;1.20;94.00
73955;DHT22;62306;52.516;13.290;2023-04-03T01:33:39;1.20;94.10
73955;DHT22;62306;52.516;13.290;2023-04-03T01:36:06;1.20;94.10
73955;DHT22;62306;52.516;13.290;2023-04-03T01:38:33;1.20;94.10
73955;DHT22;62306;52.516;13.290;2023-04-03T01:41:00;1.10;94.20
73955;DHT22;62306;52.516;13.290;2023-04-03T01:43:27;1.20;94.20
73955;DHT22;62306;52.516;13.290;2023-04-03T01:45:54;1.20;94.20
73955;DHT22;62306;52.516;13.290;2023-04-03T01:48:21;1.20;94.20
73955;DHT22;62306;52.516;13.290;2023-04-03T01:50:49;1.10;94.30
73955;DHT22;62306;52.516;13.290;2023-04-03T01:53:17;1.10;94.40
73955;DHT22;62306;52.516;13.290;2023-04-03T01:55:44;1.10;94.40
73955;DHT22;62306;52.516;13.290;2023-04-03T01:58:11;1.10;94.50
73955;DHT22;62306;52.516;13.290;2023-04-03T02:00:37;1.10;94.40
73955;DHT22;62306;52.516;13.290;2023-04-03T02:03:04;1.10;94.40
73955;DHT22;62306;52.516;13.290;2023-04-03T02:05:32;1.10;94.50
73955;DHT22;62306;52.516;13.290;2023-04-03T02:08:00;1.00;94.70
73955;DHT22;62306;52.516;13.290;2023-04-03T02:10:27;1.00;94.80
73955;DHT22;62306;52.516;13.290;2023-04-03T02:12:54;1.00;94.90
73955;DHT22;62306;52.516;13.290;2023-04-03T02:15:21;1.00;94.70
73955;DHT22;62306;52.516;13.290;2023-04-03T02:17:48;1.00;94.80
73955;DHT22;62306;52.516;13.290;2023-04-03T02:20:15;0.90;94.90
73955;DHT22;62306;52.516;13.290;2023-04-03T02:22:42;1.00;95.00
73955;DHT22;62306;52.516;13.290;2023-04-03T02:25:10;0.90;94.90
73955;DHT22;62306;52.516;13.290;2023-04-03T02:27:38;0.90;95.00
73955;DHT22;62306;52.516;13.290;2023-04-03T02:30:06;0.90;95.10
73955;DHT22;62306;52.516;13.290;2023-04-03T02:32:35;0.90;95.10
73955;DHT22;62306;52.516;13.290;2023-04-03T02:35:02;0.90;95.10
73955;DHT22;62306;52.516;13.290;2023-04-03T02:37:28;1.00;94.90
73955;DHT22;62306;52.516;13.290;2023-04-03T02:39:55;1.00;94.90
73955;DHT22;62306;52.516;13.290;2023-04-03T02:42:24;1.00;94.90
73955;DHT22;62306;52.516;13.290;2023-04-03T02:44:50;0.90;95.10
73955;DHT22;62306;52.516;13.290;2023-04-03T02:47:17;0.90;95.20
73955;DHT22;62306;52.516;13.290;2023-04-03T02:49:44;0.80;95.20
73955;DHT22;62306;52.516;13.290;2023-04-03T02:52:11;0.80;95.30
73955;DHT22;62306;52.516;13.290;2023-04-03T02:54:39;0.70;95.40
73955;DHT22;62306;52.516;13.290;2023-04-03T02:57:06;0.80;95.40
73955;DHT22;62306;52.516;13.290;2023-04-03T02:59:35;0.70;95.60
73955;DHT22;62306;52.516;13.290;2023-04-03T03:02:06;0.60;95.80
73955;DHT22;62306;52.516;13.290;2023-04-03T03:04:32;0.60;95.90
73955;DHT22;62306;52.516;13.290;2023-04-03T03:06:59;0.60;95.90
73955;DHT22;62306;52.516;13.290;2023-04-03T03:09:26;0.60;95.90
73955;DHT22;62306;52.516;13.290;2023-04-03T03:11:53;0.60;95.90
73955;DHT22;62306;52.516;13.290;2023-04-03T03:14:20;0.60;95.90
73955;DHT22;62306;52.516;13.290;2023-04-03T03:16:48;0.60;95.90
73955;DHT22;62306;52.516;13.290;2023-04-03T03:19:15;0.60;95.90
73955;DHT22;62306;52.516;13.290;2023-04-03T03:21:42;0.60;95.90
73955;DHT22;62306;52.516;13.290;2023-04-03T03:24:09;0.60;96.10
73955;DHT22;62306;52.516;13.290;2023-04-03T03:26:38;0.60;96.10
73955;DHT22;62306;52.516;13.290;2023-04-03T03:29:05;0.60;96.20
73955;DHT22;62306;52.516;13.290;2023-04-03T03:31:32;0.50;96.20
73955;DHT22;62306;52.516;13.290;2023-04-03T03:34:00;0.60;96.10
73955;DHT22;62306;52.516;13.290;2023-04-03T03:36:27;0.50;95.90
73955;DHT22;62306;52.516;13.290;2023-04-03T03:38:54;0.50;96.20
73955;DHT22;62306;52.516;13.290;2023-04-03T03:41:21;0.40;96.30
73955;DHT22;62306;52.516;13.290;2023-04-03T03:43:48;0.40;96.20
73955;DHT22;62306;52.516;13.290;2023-04-03T03:46:15;0.40;96.30
73955;DHT22;62306;52.516;13.290;2023-04-03T03:48:42;0.30;96.40
73955;DHT22;62306;52.516;13.290;2023-04-03T03:51:10;0.30;96.50
73955;DHT22;62306;52.516;13.290;2023-04-03T03:53:37;0.30;96.40
73955;DHT22;62306;52.516;13.290;2023-04-03T03:56:04;0.40;96.40
73955;DHT22;62306;52.516;13.290;2023-04-03T03:58:32;0.30;96.50
73955;DHT22;62306;52.516;13.290;2023-04-03T04:01:00;0.30;96.50
73955;DHT22;62306;52.516;13.290;2023-04-03T04:03:27;0.30;96.60
73955;DHT22;62306;52.516;13.290;2023-04-03T04:05:54;0.30;96.60
73955;DHT22;62306;52.516;13.290;2023-04-03T04:08:23;0.30;96.70
73955;DHT22;62306;52.516;13.290;2023-04-03T04:10:50;0.30;96.80
73955;DHT22;62306;52.516;13.290;2023-04-03T04:13:17;0.30;96.80
73955;DHT22;62306;52.516;13.290;2023-04-03T04:15:44;0.30;96.90
73955;DHT22;62306;52.516;13.290;2023-04-03T04:18:11;0.30;96.80
73955;DHT22;62306;52.516;13.290;2023-04-03T04:20:38;0.30;96.70
73955;DHT22;62306;52.516;13.290;2023-04-03T04:23:05;0.30;96.70
73955;DHT22;62306;52.516;13.290;2023-04-03T04:25:33;0.40;97.20
73955;DHT22;62306;52.516;13.290;2023-04-03T04:28:00;0.30;96.80
73955;DHT22;62306;52.516;13.290;2023-04-03T04:30:27;0.30;96.90
73955;DHT22;62306;52.516;13.290;2023-04-03T04:32:54;0.20;96.90
73955;DHT22;62306;52.516;13.290;2023-04-03T04:35:21;0.20;97.20
73955;DHT22;62306;52.516;13.290;2023-04-03T04:37:47;0.20;97.10
73955;DHT22;62306;52.516;13.290;2023-04-03T04:40:15;0.30;97.00
73955;DHT22;62306;52.516;13.290;2023-04-03T04:42:44;0.30;97.20
73955;DHT22;62306;52.516;13.290;2023-04-03T04:45:11;0.30;97.10
73955;DHT22;62306;52.516;13.290;2023-04-03T04:47:38;0.30;97.20
73955;DHT22;62306;52.516;13.290;2023-04-03T04:50:06;0.30;97.00
73955;DHT22;62306;52.516;13.290;2023-04-03T04:52:33;0.40;97.10
73955;DHT22;62306;52.516;13.290;2023-04-03T04:55:00;0.40;96.90
73955;DHT22;62306;52.516;13.290;2023-04-03T04:57:27;0.40;97.00
73955;DHT22;62306;52.516;13.290;2023-04-03T04:59:55;0.50;96.80
73955;DHT22;62306;52.516;13.290;2023-04-03T05:02:22;0.50;96.90
73955;DHT22;62306;52.516;13.290;2023-04-03T05:04:49;0.50;96.70
73955;DHT22;62306;52.516;13.290;2023-04-03T05:07:17;0.50;96.80
73955;DHT22;62306;52.516;13.290;2023-04-03T05:09:44;0.50;96.80
73955;DHT22;62306;52.516;13.290;2023-04-03T05:12:11;0.50;96.90
73955;DHT22;62306;52.516;13.290;2023-04-03T05:14:38;0.80;96.80
73955;DHT22;62306;52.516;13.290;2023-04-03T05:17:06;0.60;96.80
73955;DHT22;62306;52.516;13.290;2023-04-03T05:19:33;0.60;96.60
73955;DHT22;62306;52.516;13.290;2023-04-03T05:22:00;0.70;96.60
73955;DHT22;62306;52.516;13.290;2023-04-03T05:24:28;0.70;96.60
73955;DHT22;62306;52.516;13.290;2023-04-03T05:26:55;0.70;96.70
73955;DHT22;62306;52.516;13.290;2023-04-03T05:29:22;0.70;96.70
73955;DHT22;62306;52.516;13.290;2023-04-03T05:31:49;0.70;96.60
73955;DHT22;62306;52.516;13.290;2023-04-03T05:34:18;0.80;96.60
73955;DHT22;62306;52.516;13.290;2023-04-03T05:36:45;0.80;96.50
73955;DHT22;62306;52.516;13.290;2023-04-03T05:39:12;0.80;96.40
73955;DHT22;62306;52.516;13.290;2023-04-03T05:41:39;0.80;96.30
73955;DHT22;62306;52.516;13.290;2023-04-03T05:44:06;0.90;96.40
73955;DHT22;62306;52.516;13.290;2023-04-03T05:46:33;0.90;96.40
73955;DHT22;62306;52.516;13.290;2023-04-03T05:49:00;1.00;96.10
73955;DHT22;62306;52.516;13.290;2023-04-03T05:51:34;1.00;96.20
73955;DHT22;62306;52.516;13.290;2023-04-03T05:54:06;1.10;96.30
73955;DHT22;62306;52.516;13.290;2023-04-03T05:56:33;1.20;95.90
73955;DHT22;62306;52.516;13.290;2023-04-03T05:59:00;1.60;95.40
73955;DHT22;62306;52.516;13.290;2023-04-03T06:01:27;1.90;95.00
73955;DHT22;62306;52.516;13.290;2023-04-03T06:03:54;2.10;94.20
73955;DHT22;62306;52.516;13.290;2023-04-03T06:06:21;2.20;93.80
73955;DHT22;62306;52.516;13.290;2023-04-03T06:08:50;2.40;93.50
73955;DHT22;62306;52.516;13.290;2023-04-03T06:11:17;2.70;92.70
73955;DHT22;62306;52.516;13.290;2023-04-03T06:13:44;2.70;92.70
73955;DHT22;62306;52.516;13.290;2023-04-03T06:16:12;2.90;92.10
73955;DHT22;62306;52.516;13.290;2023-04-03T06:18:41;3.00;91.30
73955;DHT22;62306;52.516;13.290;2023-04-03T06:21:08;3.10;90.90
73955;DHT22;62306;52.516;13.290;2023-04-03T06:23:35;3.20;90.20
73955;DHT22;62306;52.516;13.290;2023-04-03T06:26:03;3.30;89.90
73955;DHT22;62306;52.516;13.290;2023-04-03T06:28:31;3.50;89.20
73955;DHT22;62306;52.516;13.290;2023-04-03T06:30:58;3.60;87.70
73955;DHT22;62306;52.516;13.290;2023-04-03T06:33:25;3.70;87.00
73955;DHT22;62306;52.516;13.290;2023-04-03T06:35:57;3.80;87.50
73955;DHT22;62306;52.516;13.290;2023-04-03T06:38:24;4.00;86.30
73955;DHT22;62306;52.516;13.290;2023-04-03T06:40:51;4.10;84.50
73955;DHT22;62306;52.516;13.290;2023-04-03T06:43:19;4.20;83.60
73955;DHT22;62306;52.516;13.290;2023-04-03T06:45:47;4.30;82.50
73955;DHT22;62306;52.516;13.290;2023-04-03T06:48:14;4.40;81.40
73955;DHT22;62306;52.516;13.290;2023-04-03T06:50:41;4.40;81.00
73955;DHT22;62306;52.516;13.290;2023-04-03T06:53:09;4.50;81.20
73955;DHT22;62306;52.516;13.290;2023-04-03T06:55:36;4.50;80.00
73955;DHT22;62306;52.516;13.290;2023-04-03T06:58:04;4.30;81.10
73955;DHT22;62306;52.516;13.290;2023-04-03T07:00:32;4.50;79.90
73955;DHT22;62306;52.516;13.290;2023-04-03T07:02:59;4.70;79.10
73955;DHT22;62306;52.516;13.290;2023-04-03T07:05:27;4.80;76.60
73955;DHT22;62306;52.516;13.290;2023-04-03T07:07:54;4.50;75.40
73955;DHT22;62306;52.516;13.290;2023-04-03T07:10:21;4.00;77.30
73955;DHT22;62306;52.516;13.290;2023-04-03T07:12:48;4.00;78.10
73955;DHT22;62306;52.516;13.290;2023-04-03T07:15:15;4.00;78.20
73955;DHT22;62306;52.516;13.290;2023-04-03T07:17:44;4.10;77.80
73955;DHT22;62306;52.516;13.290;2023-04-03T07:20:11;4.20;77.50
73955;DHT22;62306;52.516;13.290;2023-04-03T07:22:38;4.30;75.50
73955;DHT22;62306;52.516;13.290;2023-04-03T07:25:06;4.30;74.40
73955;DHT22;62306;52.516;13.290;2023-04-03T07:27:33;4.30;75.60
73955;DHT22;62306;52.516;13.290;2023-04-03T07:30:00;4.40;73.90
73955;DHT22;62306;52.516;13.290;2023-04-03T07:32:29;4.40;73.10
73955;DHT22;62306;52.516;13.290;2023-04-03T07:34:58;4.20;73.40
73955;DHT22;62306;52.516;13.290;2023-04-03T07:37:25;4.20;73.70
73955;DHT22;62306;52.516;13.290;2023-04-03T07:39:52;4.20;71.00
73955;DHT22;62306;52.516;13.290;2023-04-03T07:42:20;4.10;71.10
73955;DHT22;62306;52.516;13.290;2023-04-03T07:44:48;3.80;70.80
73955;DHT22;62306;52.516;13.290;2023-04-03T07:47:15;3.80;70.10
73955;DHT22;62306;52.516;13.290;2023-04-03T07:49:43;3.90;70.00
73955;DHT22;62306;52.516;13.290;2023-04-03T07:52:11;4.00;68.60
73955;DHT22;62306;52.516;13.290;2023-04-03T07:54:40;4.30;68.60
73955;DHT22;62306;52.516;13.290;2023-04-03T07:57:07;4.70;66.10
73955;DHT22;62306;52.516;13.290;2023-04-03T07:59:34;4.80;65.10
73955;DHT22;62306;52.516;13.290;2023-04-03T08:02:01;5.00;63.50
73955;DHT22;62306;52.516;13.290;2023-04-03T08:04:30;4.70;63.80
73955;DHT22;62306;52.516;13.290;2023-04-03T08:06:57;4.50;63.80
73955;DHT22;62306;52.516;13.290;2023-04-03T08:09:25;4.20;64.70
73955;DHT22;62306;52.516;13.290;2023-04-03T08:11:52;4.40;64.80
73955;DHT22;62306;52.516;13.290;2023-04-03T08:14:20;4.50;63.30
73955;DHT22;62306;52.516;13.290;2023-04-03T08:16:48;4.80;63.20
73955;DHT22;62306;52.516;13.290;2023-04-03T08:19:15;4.80;62.90
73955;DHT22;62306;52.516;13.290;2023-04-03T08:21:43;4.90;62.60
73955;DHT22;62306;52.516;13.290;2023-04-03T08:24:11;4.90;62.90
73955;DHT22;62306;52.516;13.290;2023-04-03T08:26:39;5.00;61.80
73955;DHT22;62306;52.516;13.290;2023-04-03T08:29:06;4.80;61.00
73955;DHT22;62306;52.516;13.290;2023-04-03T08:31:33;4.70;60.60
73955;DHT22;62306;52.516;13.290;2023-04-03T08:34:00;4.40;62.50
73955;DHT22;62306;52.516;13.290;2023-04-03T08:36:29;4.30;63.20
73955;DHT22;62306;52.516;13.290;2023-04-03T08:38:56;4.40;63.20
73955;DHT22;62306;52.516;13.290;2023-04-03T08:41:29;4.10;63.50
73955;DHT22;62306;52.516;13.290;2023-04-03T08:44:00;4.20;63.40
73955;DHT22;62306;52.516;13.290;2023-04-03T08:46:40;4.40;62.90
73955;DHT22;62306;52.516;13.290;2023-04-03T08:49:13;4.50;62.20
73955;DHT22;62306;52.516;13.290;2023-04-03T08:51:42;4.50;62.70
73955;DHT22;62306;52.516;13.290;2023-04-03T08:54:21;4.30;63.00
73955;DHT22;62306;52.516;13.290;2023-04-03T08:56:52;4.30;63.20
73955;DHT22;62306;52.516;13.290;2023-04-03T08:59:26;4.30;63.20
73955;DHT22;62306;52.516;13.290;2023-04-03T09:01:54;4.40;63.50
73955;DHT22;62306;52.516;13.290;2023-04-03T09:04:22;4.70;64.10
73955;DHT22;62306;52.516;13.290;2023-04-03T09:06:55;4.90;63.40
73955;DHT22;62306;52.516;13.290;2023-04-03T09:09:31;5.00;62.10
73955;DHT22;62306;52.516;13.290;2023-04-03T09:12:06;5.00;60.70
73955;DHT22;62306;52.516;13.290;2023-04-03T09:14:45;5.00;61.60
73955;DHT22;62306;52.516;13.290;2023-04-03T09:17:18;5.00;60.50
73955;DHT22;62306;52.516;13.290;2023-04-03T09:19:53;5.00;60.80
73955;DHT22;62306;52.516;13.290;2023-04-03T09:22:24;5.00;60.00
73955;DHT22;62306;52.516;13.290;2023-04-03T09:24:57;5.00;60.50
73955;DHT22;62306;52.516;13.290;2023-04-03T09:27:25;5.20;60.30
73955;DHT22;62306;52.516;13.290;2023-04-03T09:29:55;5.40;58.90
73955;DHT22;62306;52.516;13.290;2023-04-03T09:32:27;5.50;59.90
73955;DHT22;62306;52.516;13.290;2023-04-03T09:34:56;5.60;58.90
73955;DHT22;62306;52.516;13.290;2023-04-03T09:37:35;5.70;58.30
73955;DHT22;62306;52.516;13.290;2023-04-03T09:40:03;5.70;58.30
73955;DHT22;62306;52.516;13.290;2023-04-03T09:42:31;5.90;58.40
73955;DHT22;62306;52.516;13.290;2023-04-03T09:45:00;6.10;57.60
73955;DHT22;62306;52.516;13.290;2023-04-03T09:47:29;6.60;55.70
73955;DHT22;62306;52.516;13.290;2023-04-03T09:50:17;7.10;54.10
73955;DHT22;62306;52.516;13.290;2023-04-03T09:52:47;7.40;50.80
73955;DHT22;62306;52.516;13.290;2023-04-03T09:55:15;6.80;50.40
73955;DHT22;62306;52.516;13.290;2023-04-03T09:57:43;7.00;51.30
73955;DHT22;62306;52.516;13.290;2023-04-03T10:00:21;7.00;51.00
73955;DHT22;62306;52.516;13.290;2023-04-03T10:02:51;7.00;50.20
73955;DHT22;62306;52.516;13.290;2023-04-03T10:05:42;6.90;50.60
73955;DHT22;62306;52.516;13.290;2023-04-03T10:08:20;6.50;51.10
73955;DHT22;62306;52.516;13.290;2023-04-03T10:11:06;5.80;52.40
73955;DHT22;62306;52.516;13.290;2023-04-03T10:13:33;5.80;54.40
73955;DHT22;62306;52.516;13.290;2023-04-03T10:16:06;5.90;53.50
73955;DHT22;62306;52.516;13.290;2023-04-03T10:18:49;6.00;53.30
73955;DHT22;62306;52.516;13.290;2023-04-03T10:21:32;6.20;52.60
73955;DHT22;62306;52.516;13.290;2023-04-03T10:24:10;6.30;52.80
73955;DHT22;62306;52.516;13.290;2023-04-03T10:26:45;6.30;51.60
73955;DHT22;62306;52.516;13.290;2023-04-03T10:29:25;6.30;50.80
73955;DHT22;62306;52.516;13.290;2023-04-03T10:32:02;6.50;51.40
73955;DHT22;62306;52.516;13.290;2023-04-03T10:34:35;6.50;50.80
73955;DHT22;62306;52.516;13.290;2023-04-03T10:37:09;6.20;50.60
73955;DHT22;62306;52.516;13.290;2023-04-03T10:39:43;6.40;51.00
73955;DHT22;62306;52.516;13.290;2023-04-03T10:42:18;6.60;49.30
73955;DHT22;62306;52.516;13.290;2023-04-03T10:45:05;6.70;48.90
73955;DHT22;62306;52.516;13.290;2023-04-03T10:47:42;6.90;48.00
73955;DHT22;62306;52.516;13.290;2023-04-03T10:50:26;7.00;48.20
73955;DHT22;62306;52.516;13.290;2023-04-03T10:52:59;7.00;48.40
73955;DHT22;62306;52.516;13.290;2023-04-03T10:55:34;6.90;46.90
73955;DHT22;62306;52.516;13.290;2023-04-03T10:58:03;6.80;47.90
73955;DHT22;62306;52.516;13.290;2023-04-03T11:00:36;6.90;47.90
73955;DHT22;62306;52.516;13.290;2023-04-03T11:03:11;7.00;47.50
73955;DHT22;62306;52.516;13.290;2023-04-03T11:05:42;6.90;46.90
73955;DHT22;62306;52.516;13.290;2023-04-03T11:08:24;6.80;47.60
73955;DHT22;62306;52.516;13.290;2023-04-03T11:10:56;6.90;48.20
73955;DHT22;62306;52.516;13.290;2023-04-03T11:13:28;6.90;48.20
73955;DHT22;62306;52.516;13.290;2023-04-03T11:15:58;7.10;47.70
73955;DHT22;62306;52.516;13.290;2023-04-03T11:18:31;7.00;48.40
73955;DHT22;62306;52.516;13.290;2023-04-03T11:21:03;6.90;47.80
73955;DHT22;62306;52.516;13.290;2023-04-03T11:23:33;6.80;48.40
73955;DHT22;62306;52.516;13.290;2023-04-03T11:26:10;6.40;49.60
73955;DHT22;62306;52.516;13.290;2023-04-03T11:28:37;6.60;50.10
73955;DHT22;62306;52.516;13.290;2023-04-03T11:31:15;6.60;49.40
73955;DHT22;62306;52.516;13.290;2023-04-03T11:33:54;6.60;50.40
73955;DHT22;62306;52.516;13.290;2023-04-03T11:36:26;6.80;50.30
73955;DHT22;62306;52.516;13.290;2023-04-03T11:38:58;6.80;49.30
73955;DHT22;62306;52.516;13.290;2023-04-03T11:41:29;6.70;50.10
73955;DHT22;62306;52.516;13.290;2023-04-03T11:43:59;6.80;50.10
73955;DHT22;62306;52.516;13.290;2023-04-03T11:46:49;6.60;50.10
73955;DHT22;62306;52.516;13.290;2023-04-03T11:55:55;6.40;51.60
73955;DHT22;62306;52.516;13.290;2023-04-03T11:58:24;6.30;51.20
73955;DHT22;62306;52.516;13.290;2023-04-03T12:03:57;6.60;51.80
73955;DHT22;62306;52.516;13.290;2023-04-03T12:10:17;6.50;52.50
73955;DHT22;62306;52.516;13.290;2023-04-03T12:12:58;6.50;52.90
73955;DHT22;62306;52.516;13.290;2023-04-03T12:15:54;6.40;52.30
73955;DHT22;62306;52.516;13.290;2023-04-03T12:18:42;6.20;53.30
73955;DHT22;62306;52.516;13.290;2023-04-03T12:21:09;6.30;53.00
73955;DHT22;62306;52.516;13.290;2023-04-03T12:23:54;6.30;53.10
73955;DHT22;62306;52.516;13.290;2023-04-03T12:26:25;6.20;53.40
73955;DHT22;62306;52.516;13.290;2023-04-03T12:28:53;6.10;53.60
73955;DHT22;62306;52.516;13.290;2023-04-03T12:31:24;6.10;54.30
73955;DHT22;62306;52.516;13.290;2023-04-03T12:34:12;6.30;53.60
73955;DHT22;62306;52.516;13.290;2023-04-03T12:36:50;6.30;54.00
73955;DHT22;62306;52.516;13.290;2023-04-03T12:39:36;6.50;54.30
73955;DHT22;62306;52.516;13.290;2023-04-03T12:42:22;6.50;53.80
73955;DHT22;62306;52.516;13.290;2023-04-03T12:44:56;6.20;53.30
73955;DHT22;62306;52.516;13.290;2023-04-03T12:47:29;6.10;54.00
73955;DHT22;62306;52.516;13.290;2023-04-03T12:50:02;6.20;52.90
73955;DHT22;62306;52.516;13.290;2023-04-03T12:52:37;6.50;52.10
73955;DHT22;62306;52.516;13.290;2023-04-03T12:55:18;6.50;51.10
73955;DHT22;62306;52.516;13.290;2023-04-03T12:57:47;6.60;50.90
73955;DHT22;62306;52.516;13.290;2023-04-03T13:00:32;6.80;49.70
73955;DHT22;62306;52.516;13.290;2023-04-03T13:03:02;7.00;49.10
73955;DHT22;62306;52.516;13.290;2023-04-03T13:05:30;6.70;49.80
73955;DHT22;62306;52.516;13.290;2023-04-03T13:08:00;6.50;51.10
73955;DHT22;62306;52.516;13.290;2023-04-03T13:10:29;6.60;50.70
73955;DHT22;62306;52.516;13.290;2023-04-03T13:13:06;6.50;51.50
73955;DHT22;62306;52.516;13.290;2023-04-03T13:15:40;6.60;51.70
73955;DHT22;62306;52.516;13.290;2023-04-03T13:18:22;6.60;52.00
73955;DHT22;62306;52.516;13.290;2023-04-03T13:20:49;6.60;52.30
73955;DHT22;62306;52.516;13.290;2023-04-03T13:23:17;6.50;52.00
73955;DHT22;62306;52.516;13.290;2023-04-03T13:25:46;6.50;52.50
73955;DHT22;62306;52.516;13.290;2023-04-03T13:28:18;6.40;52.90
73955;DHT22;62306;52.516;13.290;2023-04-03T13:30:56;6.30;53.70
73955;DHT22;62306;52.516;13.290;2023-04-03T13:33:27;6.00;54.70
73955;DHT22;62306;52.516;13.290;2023-04-03T13:35:56;6.10;54.20
73955;DHT22;62306;52.516;13.290;2023-04-03T13:38:25;6.00;55.20
73955;DHT22;62306;52.516;13.290;2023-04-03T13:40:54;6.10;55.40
73955;DHT22;62306;52.516;13.290;2023-04-03T13:43:25;6.30;55.10
73955;DHT22;62306;52.516;13.290;2023-04-03T13:46:00;6.40;54.80
73955;DHT22;62306;52.516;13.290;2023-04-03T13:48:36;6.30;53.10
73955;DHT22;62306;52.516;13.290;2023-04-03T13:51:13;6.30;54.10
73955;DHT22;62306;52.516;13.290;2023-04-03T13:53:45;6.40;53.90
73955;DHT22;62306;52.516;13.290;2023-04-03T13:56:19;6.50;53.70
73955;DHT22;62306;52.516;13.290;2023-04-03T13:59:02;6.40;53.60
73955;DHT22;62306;52.516;13.290;2023-04-03T14:01:40;6.30;54.10
73955;DHT22;62306;52.516;13.290;2023-04-03T14:04:15;6.30;54.70
73955;DHT22;62306;52.516;13.290;2023-04-03T14:06:42;6.30;54.20
73955;DHT22;62306;52.516;13.290;2023-04-03T14:09:10;6.20;54.60
73955;DHT22;62306;52.516;13.290;2023-04-03T14:11:37;6.10;54.10
73955;DHT22;62306;52.516;13.290;2023-04-03T14:14:12;6.10;55.10
73955;DHT22;62306;52.516;13.290;2023-04-03T14:16:43;6.20;55.10
73955;DHT22;62306;52.516;13.290;2023-04-03T14:19:18;6.30;55.40
73955;DHT22;62306;52.516;13.290;2023-04-03T14:21:46;6.40;55.30
73955;DHT22;62306;52.516;13.290;2023-04-03T14:24:13;6.30;54.80
73955;DHT22;62306;52.516;13.290;2023-04-03T14:26:40;6.40;55.30
73955;DHT22;62306;52.516;13.290;2023-04-03T14:29:11;6.40;54.70
73955;DHT22;62306;52.516;13.290;2023-04-03T14:31:38;6.40;54.60
73955;DHT22;62306;52.516;13.290;2023-04-03T14:34:05;6.50;54.80
73955;DHT22;62306;52.516;13.290;2023-04-03T14:36:33;6.40;54.90
73955;DHT22;62306;52.516;13.290;2023-04-03T14:39:00;6.50;54.40
73955;DHT22;62306;52.516;13.290;2023-04-03T14:41:27;6.40;53.30
73955;DHT22;62306;52.516;13.290;2023-04-03T14:43:55;6.40;53.90
73955;DHT22;62306;52.516;13.290;2023-04-03T14:46:26;6.20;54.80
73955;DHT22;62306;52.516;13.290;2023-04-03T14:48:55;6.30;54.70
73955;DHT22;62306;52.516;13.290;2023-04-03T14:51:22;6.70;54.10
73955;DHT22;62306;52.516;13.290;2023-04-03T14:53:49;6.70;53.40
73955;DHT22;62306;52.516;13.290;2023-04-03T14:56:19;6.60;54.60
73955;DHT22;62306;52.516;13.290;2023-04-03T14:58:48;6.50;55.10
73955;DHT22;62306;52.516;13.290;2023-04-03T15:01:16;6.50;55.60
73955;DHT22;62306;52.516;13.290;2023-04-03T15:03:45;6.30;56.30
73955;DHT22;62306;52.516;13.290;2023-04-03T15:06:13;6.30;56.50
73955;DHT22;62306;52.516;13.290;2023-04-03T15:08:41;6.10;57.70
73955;DHT22;62306;52.516;13.290;2023-04-03T15:11:09;6.00;58.40
73955;DHT22;62306;52.516;13.290;2023-04-03T15:13:37;5.80;59.50
73955;DHT22;62306;52.516;13.290;2023-04-03T15:16:04;5.80;59.70
73955;DHT22;62306;52.516;13.290;2023-04-03T15:18:37;5.80;59.90
73955;DHT22;62306;52.516;13.290;2023-04-03T15:21:06;5.80;60.20
73955;DHT22;62306;52.516;13.290;2023-04-03T15:23:33;5.70;60.40
73955;DHT22;62306;52.516;13.290;2023-04-03T15:26:00;5.60;61.10
73955;DHT22;62306;52.516;13.290;2023-04-03T15:28:30;5.50;61.70
73955;DHT22;62306;52.516;13.290;2023-04-03T15:30:59;5.50;62.70
73955;DHT22;62306;52.516;13.290;2023-04-03T15:33:26;5.50;63.20
73955;DHT22;62306;52.516;13.290;2023-04-03T15:35:53;5.60;63.00
73955;DHT22;62306;52.516;13.290;2023-04-03T15:38:22;5.60;62.90
73955;DHT22;62306;52.516;13.290;2023-04-03T15:40:49;5.50;63.50
73955;DHT22;62306;52.516;13.290;2023-04-03T15:43:16;5.40;64.30
73955;DHT22;62306;52.516;13.290;2023-04-03T15:45:44;5.40;64.60
73955;DHT22;62306;52.516;13.290;2023-04-03T15:48:11;5.40;65.00
73955;DHT22;62306;52.516;13.290;2023-04-03T15:50:39;5.40;65.40
73955;DHT22;62306;52.516;13.290;2023-04-03T15:53:07;5.50;65.00
73955;DHT22;62306;52.516;13.290;2023-04-03T15:55:37;5.60;64.50
73955;DHT22;62306;52.516;13.290;2023-04-03T15:58:04;5.50;63.90
73955;DHT22;62306;52.516;13.290;2023-04-03T16:00:32;5.50;64.40